< < Back
Terminal Aerodrome Forecast


Current Version              Previous Versions:   1  2  3  4  5  6  7  8  9  

Terminal Aerodrome Forecast

197
FTUS42 KJAX 171700
TAFJAX
TAF
KJAX 171720Z 1718/1818 06016G26KT P6SM OVC015
     FM172100 06014G24KT P6SM BKN025
     FM180100 06010KT P6SM BKN025
     FM180800 07009KT P6SM VCSH OVC015
     FM181400 08013G23KT 5SM -RA BR OVC010=

Latest METAR

401
SAUS80 KWBC 171900 RRA
MTRJAX
METAR KJAX 171856Z 06021G29KT 10SM OVC017 19/15 A3030 RMK AO2 PK WND
07029/1856 SLP259 T01890150


USA.gov is the U.S. government's official web portal to all federal, state and local government web resources and services.